Time;durP1;ratioP1;P1;durP2;ratioP2;P2;SDS_P1;SDS_P2;PMS_P1;PMS_P2;Temp;Humidity;BMP_temperature;BMP_pressure;BME280_temperature;BME280_humidity;BME280_pressure;Samples;Min_cycle;Max_cycle;Signal;HPM_P1;HPM_P2
2023/03/19 00:02:50;;;;;;;55.13;16.90;;;;;;;;;;6165058;28;20565;-75
2023/03/19 00:05:55;;;;;;;50.07;17.17;;;;;;;;;;6166329;28;20476;-76
2023/03/19 00:09:00;;;;;;;54.43;17.20;;;;;;;;;;6166338;28;20313;-76
2023/03/19 00:12:07;;;;;;;47.27;16.47;;;;;;;;;;6165743;28;20305;-76
2023/03/19 00:15:15;;;;;;;50.13;16.53;;;;;;;;;;6165057;28;20305;-77
2023/03/19 00:18:20;;;;;;;38.60;15.47;;;;;;;;;;6171860;28;20300;-76
2023/03/19 00:21:26;;;;;;;42.67;16.10;;;;;;;;;;6165520;28;20300;-75
2023/03/19 00:24:34;;;;;;;44.63;16.17;;;;;;;;;;6165844;28;20313;-75
2023/03/19 00:27:39;;;;;;;41.20;15.70;;;;;;;;;;6165517;28;20303;-75
2023/03/19 00:30:46;;;;;;;39.37;15.17;;;;;;;;;;6163990;28;20289;-76
2023/03/19 00:33:52;;;;;;;41.73;15.83;;;;;;;;;;6165611;28;20492;-76
2023/03/19 00:36:57;;;;;;;42.00;15.03;;;;;;;;;;6164924;28;20463;-76
2023/03/19 00:40:03;;;;;;;36.60;14.33;;;;;;;;;;6165383;28;20293;-75
2023/03/19 00:43:11;;;;;;;41.73;14.80;;;;;;;;;;6164187;28;20293;-76
2023/03/19 00:46:17;;;;;;;41.53;15.73;;;;;;;;;;6164867;28;20302;-75
2023/03/19 00:49:23;;;;;;;40.87;15.10;;;;;;;;;;6165472;28;20301;-76
2023/03/19 00:52:28;;;;;;;40.73;16.03;;;;;;;;;;6164264;28;20298;-76
2023/03/19 00:55:33;;;;;;;38.63;14.90;;;;;;;;;;6194624;28;20297;-75
2023/03/19 00:58:39;;;;;;;38.60;14.40;;;;;;;;;;6164459;28;20305;-76
2023/03/19 01:01:46;;;;;;;50.13;16.13;;;;;;;;;;6163270;28;20314;-75
2023/03/19 01:04:52;;;;;;;40.80;14.70;;;;;;;;;;6163110;28;20297;-75
2023/03/19 01:07:57;;;;;;;40.77;14.50;;;;;;;;;;6163453;28;20297;-75
2023/03/19 01:11:07;;;;;;;35.77;14.20;;;;;;;;;;6162474;28;20297;-75
2023/03/19 01:14:13;;;;;;;40.53;14.20;;;;;;;;;;6163519;28;20305;-74
2023/03/19 01:17:20;;;;;;;39.20;13.33;;;;;;;;;;6163109;28;20300;-76
2023/03/19 01:20:26;;;;;;;35.40;13.47;;;;;;;;;;6162601;28;20296;-75
2023/03/19 01:23:31;;;;;;;40.20;13.33;;;;;;;;;;6163691;28;20300;-76
2023/03/19 01:26:37;;;;;;;41.73;15.40;;;;;;;;;;6162097;28;20320;-74
2023/03/19 01:30:09;;;;;;;35.60;13.97;;;;;;;;;;6162439;28;20488;-76
2023/03/19 01:33:55;;;;;;;42.83;14.43;;;;;;;;;;6168404;28;20305;-76
2023/03/19 01:37:12;;;;;;;48.30;14.63;;;;;;;;;;6162371;28;20308;-75
2023/03/19 01:40:19;;;;;;;50.33;13.67;;;;;;;;;;6162407;28;20300;-76
2023/03/19 01:43:26;;;;;;;39.27;13.03;;;;;;;;;;6163082;28;20309;-76
2023/03/19 01:46:36;;;;;;;44.30;14.70;;;;;;;;;;6161322;28;20296;-75
2023/03/19 01:50:02;;;;;;;39.07;13.20;;;;;;;;;;6162784;28;20307;-75
2023/03/19 01:53:10;;;;;;;40.23;13.73;;;;;;;;;;6194381;28;20459;-74
2023/03/19 01:56:28;;;;;;;43.37;14.53;;;;;;;;;;6161668;28;20297;-76
2023/03/19 01:59:55;;;;;;;42.17;14.17;;;;;;;;;;6163515;28;20297;-75
2023/03/19 02:03:19;;;;;;;38.47;13.83;;;;;;;;;;6162837;28;20304;-74
2023/03/19 02:06:33;;;;;;;35.47;13.53;;;;;;;;;;6161863;28;20289;-74
2023/03/19 02:09:40;;;;;;;36.20;13.03;;;;;;;;;;6162205;28;20467;-76
2023/03/19 02:12:45;;;;;;;32.10;12.67;;;;;;;;;;6161856;28;20313;-75
2023/03/19 02:15:51;;;;;;;35.17;13.03;;;;;;;;;;6162617;28;20597;-76
2023/03/19 02:18:57;;;;;;;37.63;13.77;;;;;;;;;;6162258;28;20309;-76
2023/03/19 02:22:05;;;;;;;39.97;13.80;;;;;;;;;;6162581;28;20305;-75
2023/03/19 02:25:13;;;;;;;33.77;12.70;;;;;;;;;;6161588;28;20581;-76
2023/03/19 02:28:23;;;;;;;31.30;11.43;;;;;;;;;;6162344;28;20308;-76
2023/03/19 02:31:30;;;;;;;25.60;11.60;;;;;;;;;;6161856;28;20297;-75
2023/03/19 02:34:40;;;;;;;32.47;11.73;;;;;;;;;;6161129;28;20282;-75
2023/03/19 02:37:45;;;;;;;32.77;12.60;;;;;;;;;;6162093;28;20301;-75
2023/03/19 02:40:53;;;;;;;30.83;11.77;;;;;;;;;;6169546;28;20299;-74
2023/03/19 02:44:02;;;;;;;31.67;12.40;;;;;;;;;;6171151;28;20296;-75
2023/03/19 02:47:08;;;;;;;26.87;11.73;;;;;;;;;;6169688;28;20309;-74
2023/03/19 02:50:13;;;;;;;28.37;11.63;;;;;;;;;;6170143;28;20484;-75
2023/03/19 02:53:19;;;;;;;25.83;11.37;;;;;;;;;;6201398;28;20321;-76
2023/03/19 02:56:25;;;;;;;30.10;12.20;;;;;;;;;;6201246;28;20487;-76
2023/03/19 02:59:31;;;;;;;25.00;10.97;;;;;;;;;;6170819;28;20545;-75
2023/03/19 03:02:37;;;;;;;23.43;10.90;;;;;;;;;;6200585;28;20312;-75
2023/03/19 03:05:43;;;;;;;29.37;12.00;;;;;;;;;;6168826;28;20490;-76
2023/03/19 03:08:48;;;;;;;25.97;11.73;;;;;;;;;;6170331;28;20484;-75
2023/03/19 03:11:53;;;;;;;23.70;11.07;;;;;;;;;;6170568;28;20601;-75
2023/03/19 03:14:59;;;;;;;32.90;12.40;;;;;;;;;;6169253;28;20309;-75
2023/03/19 03:18:05;;;;;;;31.40;12.13;;;;;;;;;;6170324;28;20307;-75
2023/03/19 03:21:10;;;;;;;23.90;12.07;;;;;;;;;;6169747;28;20509;-75
2023/03/19 03:24:15;;;;;;;24.77;12.10;;;;;;;;;;6169196;28;20314;-75
2023/03/19 03:27:20;;;;;;;27.57;11.53;;;;;;;;;;6170150;28;20489;-75
2023/03/19 03:30:27;;;;;;;31.57;12.10;;;;;;;;;;6169871;28;20300;-76
2023/03/19 03:33:32;;;;;;;30.57;12.40;;;;;;;;;;6170339;28;20297;-76
2023/03/19 03:36:37;;;;;;;30.10;12.03;;;;;;;;;;6169741;28;20607;-76
2023/03/19 03:39:43;;;;;;;30.63;12.13;;;;;;;;;;6169203;28;20293;-75
2023/03/19 03:42:49;;;;;;;28.13;12.47;;;;;;;;;;6169469;28;20325;-75
2023/03/19 03:45:55;;;;;;;30.90;11.93;;;;;;;;;;6168610;28;20299;-75
2023/03/19 03:49:01;;;;;;;30.43;12.33;;;;;;;;;;6168688;28;20304;-75
2023/03/19 03:52:07;;;;;;;31.03;12.93;;;;;;;;;;6196071;28;20310;-75
2023/03/19 03:55:12;;;;;;;27.37;11.73;;;;;;;;;;6164653;28;20317;-76
2023/03/19 03:58:18;;;;;;;30.37;12.40;;;;;;;;;;6165413;28;20300;-74
2023/03/19 04:01:24;;;;;;;28.90;11.97;;;;;;;;;;6164989;28;20296;-77
2023/03/19 04:04:32;;;;;;;31.17;12.23;;;;;;;;;;6178011;28;20316;-76
2023/03/19 04:07:38;;;;;;;29.10;11.93;;;;;;;;;;6163501;28;20280;-76
2023/03/19 04:10:44;;;;;;;25.07;11.10;;;;;;;;;;6164760;28;20261;-76
2023/03/19 04:13:49;;;;;;;25.90;11.80;;;;;;;;;;6196347;28;20309;-75
2023/03/19 04:16:56;;;;;;;22.80;10.57;;;;;;;;;;6196477;28;20293;-75
2023/03/19 04:20:01;;;;;;;21.33;10.80;;;;;;;;;;6164172;28;20561;-75
2023/03/19 04:23:06;;;;;;;24.30;11.07;;;;;;;;;;6165304;28;20297;-75
2023/03/19 04:26:13;;;;;;;29.67;11.93;;;;;;;;;;6164876;28;20301;-75
2023/03/19 04:29:18;;;;;;;28.83;12.47;;;;;;;;;;6163831;28;20296;-75
2023/03/19 04:32:25;;;;;;;27.93;12.03;;;;;;;;;;6164509;28;20294;-75
2023/03/19 04:35:31;;;;;;;30.60;12.73;;;;;;;;;;6164132;28;20590;-75
2023/03/19 04:38:37;;;;;;;25.57;11.13;;;;;;;;;;6163869;28;20301;-75
2023/03/19 04:41:42;;;;;;;16.43;8.97;;;;;;;;;;6164174;28;20294;-74
2023/03/19 04:45:03;;;;;;;16.40;9.40;;;;;;;;;;6163365;28;20297;-75
2023/03/19 04:48:11;;;;;;;14.30;8.47;;;;;;;;;;6163509;28;20407;-74
2023/03/19 04:51:20;;;;;;;10.53;8.23;;;;;;;;;;6165186;28;20298;-75
2023/03/19 04:54:26;;;;;;;16.67;8.70;;;;;;;;;;6163646;28;20310;-76
2023/03/19 04:57:31;;;;;;;15.70;9.33;;;;;;;;;;6164141;28;20313;-75
2023/03/19 05:00:38;;;;;;;12.90;8.80;;;;;;;;;;6162968;28;20297;-75
2023/03/19 05:03:46;;;;;;;15.37;9.10;;;;;;;;;;6162489;28;20306;-75
2023/03/19 05:06:52;;;;;;;12.43;9.03;;;;;;;;;;6163603;28;20324;-76
2023/03/19 05:09:58;;;;;;;16.67;9.50;;;;;;;;;;6163144;28;20296;-75
2023/03/19 05:13:03;;;;;;;14.90;8.80;;;;;;;;;;6163063;28;20293;-76
2023/03/19 05:16:12;;;;;;;14.87;9.00;;;;;;;;;;6163273;28;20304;-76
2023/03/19 05:19:19;;;;;;;15.93;9.83;;;;;;;;;;6194847;28;20306;-75
2023/03/19 05:22:25;;;;;;;16.40;8.97;;;;;;;;;;6194881;28;20301;-75
2023/03/19 05:25:35;;;;;;;15.00;9.43;;;;;;;;;;6162375;28;20299;-77
2023/03/19 05:28:44;;;;;;;17.07;9.43;;;;;;;;;;6162537;28;20308;-76
2023/03/19 05:31:50;;;;;;;16.27;9.33;;;;;;;;;;6163241;28;20268;-75
2023/03/19 05:34:59;;;;;;;18.20;10.67;;;;;;;;;;6162555;28;20308;-75
2023/03/19 05:38:04;;;;;;;15.63;9.63;;;;;;;;;;6162554;28;20292;-75
2023/03/19 05:41:11;;;;;;;18.53;9.63;;;;;;;;;;6162845;28;20316;-74
2023/03/19 05:44:31;;;;;;;19.73;10.77;;;;;;;;;;6177816;28;20316;-76
2023/03/19 05:47:50;;;;;;;20.43;10.97;;;;;;;;;;6162495;28;20345;-75
2023/03/19 05:50:58;;;;;;;24.70;10.20;;;;;;;;;;6162716;28;20300;-76
2023/03/19 05:54:09;;;;;;;21.70;10.33;;;;;;;;;;6162126;28;20304;-75
2023/03/19 05:57:54;;;;;;;20.87;10.37;;;;;;;;;;6136453;29;20313;-75
2023/03/19 06:01:02;;;;;;;17.03;9.43;;;;;;;;;;6121339;29;20296;-75
2023/03/19 06:04:09;;;;;;;16.43;9.07;;;;;;;;;;6161500;28;20305;-76
2023/03/19 06:07:17;;;;;;;17.63;9.97;;;;;;;;;;6162286;28;20296;-75
2023/03/19 06:10:23;;;;;;;17.57;9.83;;;;;;;;;;6161636;28;20310;-76
2023/03/19 06:13:32;;;;;;;16.30;9.67;;;;;;;;;;6161250;28;20299;-76
2023/03/19 06:16:41;;;;;;;19.13;10.10;;;;;;;;;;6160788;28;20276;-75
2023/03/19 06:19:46;;;;;;;14.60;9.23;;;;;;;;;;6161251;28;20305;-75
2023/03/19 06:22:53;;;;;;;16.23;9.17;;;;;;;;;;6161572;28;20293;-76
2023/03/19 06:25:59;;;;;;;18.33;9.97;;;;;;;;;;6162068;28;20288;-76
2023/03/19 06:29:11;;;;;;;14.80;9.43;;;;;;;;;;6192843;28;20334;-74
2023/03/19 06:32:17;;;;;;;14.50;9.30;;;;;;;;;;6161495;28;20297;-74
2023/03/19 06:35:24;;;;;;;13.97;9.43;;;;;;;;;;6161493;28;20309;-76
2023/03/19 06:38:32;;;;;;;14.90;9.70;;;;;;;;;;6161752;28;20299;-75
2023/03/19 06:41:37;;;;;;;13.30;9.33;;;;;;;;;;6162804;28;20307;-76
2023/03/19 06:44:50;;;;;;;14.00;8.77;;;;;;;;;;6160971;28;20297;-75
2023/03/19 06:47:57;;;;;;;13.63;8.70;;;;;;;;;;6161608;28;20304;-75
2023/03/19 06:51:02;;;;;;;12.73;8.43;;;;;;;;;;6162596;28;20293;-76
2023/03/19 06:54:10;;;;;;;12.43;8.67;;;;;;;;;;6161964;28;20304;-75
2023/03/19 06:57:15;;;;;;;11.73;9.00;;;;;;;;;;6162690;28;20292;-75
2023/03/19 07:00:21;;;;;;;11.90;8.80;;;;;;;;;;6162131;28;20614;-76
2023/03/19 07:03:26;;;;;;;14.90;9.30;;;;;;;;;;6161591;28;20301;-75
2023/03/19 07:06:32;;;;;;;14.03;9.47;;;;;;;;;;6162592;28;20300;-75
2023/03/19 07:09:39;;;;;;;13.80;9.57;;;;;;;;;;6161812;28;20632;-76
2023/03/19 07:12:45;;;;;;;11.77;8.90;;;;;;;;;;6192479;28;20303;-75
2023/03/19 07:15:50;;;;;;;13.23;9.37;;;;;;;;;;6162232;28;20300;-75
2023/03/19 07:18:55;;;;;;;14.03;10.03;;;;;;;;;;6161763;28;20300;-75
2023/03/19 07:22:01;;;;;;;13.33;9.10;;;;;;;;;;6162580;28;20293;-75
2023/03/19 07:25:08;;;;;;;13.30;9.03;;;;;;;;;;6161116;28;20314;-76
2023/03/19 07:28:14;;;;;;;16.33;9.53;;;;;;;;;;6166619;28;20468;-75
2023/03/19 07:31:19;;;;;;;17.47;9.93;;;;;;;;;;6166590;28;20310;-74
2023/03/19 07:34:25;;;;;;;15.70;9.93;;;;;;;;;;6166034;28;20309;-74
2023/03/19 07:37:30;;;;;;;14.40;9.60;;;;;;;;;;6166291;28;20295;-75
2023/03/19 07:40:37;;;;;;;13.13;9.23;;;;;;;;;;6165473;28;20302;-75
2023/03/19 07:43:47;;;;;;;15.77;10.17;;;;;;;;;;6164927;28;20306;-76
2023/03/19 07:46:52;;;;;;;14.80;9.70;;;;;;;;;;6166577;28;20265;-76
2023/03/19 07:49:58;;;;;;;16.33;9.93;;;;;;;;;;6166233;28;20307;-76
2023/03/19 07:53:03;;;;;;;17.53;11.03;;;;;;;;;;6165980;28;20298;-76
2023/03/19 07:56:10;;;;;;;19.17;11.37;;;;;;;;;;6165920;28;20289;-76
2023/03/19 07:59:15;;;;;;;17.57;10.83;;;;;;;;;;6165773;28;20316;-76
2023/03/19 08:02:20;;;;;;;22.63;12.77;;;;;;;;;;6165831;28;20309;-76
2023/03/19 08:05:27;;;;;;;19.87;11.90;;;;;;;;;;6164565;28;20300;-76
2023/03/19 08:08:33;;;;;;;18.27;10.50;;;;;;;;;;6164445;28;20305;-75
2023/03/19 08:11:40;;;;;;;16.63;10.67;;;;;;;;;;6165702;28;20313;-76
2023/03/19 08:14:45;;;;;;;17.57;10.57;;;;;;;;;;6163985;28;20310;-76
2023/03/19 08:17:57;;;;;;;16.77;10.83;;;;;;;;;;6165388;28;20298;-75
2023/03/19 08:21:02;;;;;;;20.60;11.57;;;;;;;;;;6166442;28;20302;-76
2023/03/19 08:24:07;;;;;;;19.43;10.80;;;;;;;;;;6165919;28;20301;-75
2023/03/19 08:27:14;;;;;;;17.70;11.23;;;;;;;;;;6165555;28;20601;-76
2023/03/19 08:30:19;;;;;;;19.07;11.07;;;;;;;;;;6165884;28;20305;-76
2023/03/19 08:33:25;;;;;;;23.70;11.83;;;;;;;;;;6165534;28;20305;-76
2023/03/19 08:36:30;;;;;;;19.03;11.27;;;;;;;;;;6165135;28;20329;-76
2023/03/19 08:39:35;;;;;;;18.33;10.93;;;;;;;;;;6165186;28;20294;-76
2023/03/19 08:42:42;;;;;;;19.67;11.07;;;;;;;;;;6163936;28;20333;-75
2023/03/19 08:45:50;;;;;;;19.57;10.37;;;;;;;;;;6165251;28;20563;-76
2023/03/19 08:48:56;;;;;;;17.20;9.73;;;;;;;;;;6148169;28;20464;-76
2023/03/19 08:52:01;;;;;;;14.83;9.90;;;;;;;;;;6164497;28;20297;-75
2023/03/19 08:55:08;;;;;;;17.30;10.10;;;;;;;;;;6164586;28;20489;-76
2023/03/19 08:58:14;;;;;;;18.43;10.03;;;;;;;;;;6164909;28;20310;-75
2023/03/19 09:01:19;;;;;;;16.47;9.23;;;;;;;;;;6165224;28;20298;-77
2023/03/19 09:04:25;;;;;;;16.97;9.63;;;;;;;;;;6164334;28;20598;-76
2023/03/19 09:07:30;;;;;;;18.27;9.33;;;;;;;;;;6165212;28;20310;-76
2023/03/19 09:10:35;;;;;;;15.30;9.00;;;;;;;;;;6163407;28;20301;-75
2023/03/19 09:13:42;;;;;;;19.13;10.37;;;;;;;;;;6164072;28;20299;-77
2023/03/19 09:16:48;;;;;;;18.97;10.50;;;;;;;;;;6195554;28;20277;-76
2023/03/19 09:19:53;;;;;;;14.77;9.50;;;;;;;;;;6164145;28;20488;-76
2023/03/19 09:22:58;;;;;;;19.73;12.13;;;;;;;;;;6164002;28;20291;-76
2023/03/19 09:26:03;;;;;;;16.77;10.70;;;;;;;;;;6164524;28;20477;-76
2023/03/19 09:29:10;;;;;;;14.57;9.80;;;;;;;;;;6163281;28;20294;-76
2023/03/19 09:32:15;;;;;;;16.17;9.27;;;;;;;;;;6162996;28;20294;-76
2023/03/19 09:35:21;;;;;;;12.60;8.70;;;;;;;;;;6163851;28;20303;-76
2023/03/19 09:38:27;;;;;;;17.15;11.73;;;;;;;;;;6162221;28;20526;-75
2023/03/19 09:41:39;;;;;;;13.55;9.68;;;;;;;;;;6163424;28;20590;-73
2023/03/19 09:44:46;;;;;;;13.37;9.40;;;;;;;;;;6163679;28;20299;-73
2023/03/19 09:47:55;;;;;;;15.73;9.60;;;;;;;;;;6163107;28;20347;-71
2023/03/19 09:51:02;;;;;;;16.43;9.47;;;;;;;;;;6163847;28;20295;-72
2023/03/19 09:54:13;;;;;;;13.57;8.97;;;;;;;;;;6139600;28;20302;-74
2023/03/19 09:57:19;;;;;;;16.05;9.40;;;;;;;;;;6139014;28;20303;-74
2023/03/19 10:00:28;;;;;;;13.70;9.20;;;;;;;;;;6139702;28;20482;-73
2023/03/19 10:03:45;;;;;;;12.50;9.18;;;;;;;;;;6139608;28;20303;-76
2023/03/19 10:06:51;;;;;;;13.77;9.37;;;;;;;;;;6139457;28;20307;-74
2023/03/19 10:10:11;;;;;;;14.87;10.23;;;;;;;;;;6156208;28;20345;-73
2023/03/19 10:13:26;;;;;;;14.70;9.67;;;;;;;;;;6161843;28;20486;-75
2023/03/19 10:16:32;;;;;;;16.60;9.60;;;;;;;;;;6163788;28;20259;-74
2023/03/19 10:19:42;;;;;;;12.60;8.97;;;;;;;;;;6162358;28;20602;-75
2023/03/19 10:22:51;;;;;;;12.38;8.75;;;;;;;;;;6162287;28;20279;-75
2023/03/19 10:25:59;;;;;;;10.18;8.15;;;;;;;;;;6163508;28;20298;-78
2023/03/19 10:29:07;;;;;;;11.18;8.10;;;;;;;;;;6162775;28;20298;-74
2023/03/19 10:32:19;;;;;;;8.80;7.78;;;;;;;;;;6163648;28;20325;-75
2023/03/19 10:35:27;;;;;;;9.05;7.65;;;;;;;;;;6163196;28;20294;-75
2023/03/19 10:38:33;;;;;;;10.18;8.73;;;;;;;;;;6146009;28;20575;-75
2023/03/19 10:41:49;;;;;;;10.90;8.55;;;;;;;;;;6162905;28;20306;-75
2023/03/19 10:44:59;;;;;;;11.15;8.95;;;;;;;;;;6162817;28;20298;-74
2023/03/19 10:48:07;;;;;;;11.55;8.15;;;;;;;;;;6162399;28;20294;-73
2023/03/19 10:51:14;;;;;;;9.55;8.27;;;;;;;;;;6163356;28;20301;-72
2023/03/19 10:54:21;;;;;;;11.05;8.57;;;;;;;;;;6162633;28;20309;-72
2023/03/19 10:57:30;;;;;;;13.07;8.93;;;;;;;;;;6163257;28;20290;-73
2023/03/19 11:00:36;;;;;;;10.27;8.50;;;;;;;;;;6165473;28;20302;-74
2023/03/19 11:03:51;;;;;;;10.35;8.02;;;;;;;;;;6167272;28;20307;-73
2023/03/19 11:07:02;;;;;;;8.98;7.78;;;;;;;;;;6166448;28;20598;-74
2023/03/19 11:10:15;;;;;;;11.40;8.48;;;;;;;;;;6167008;28;20586;-72
2023/03/19 11:13:24;;;;;;;11.20;8.32;;;;;;;;;;6167042;28;20297;-73
2023/03/19 11:16:30;;;;;;;10.88;8.52;;;;;;;;;;6167570;28;20297;-75
2023/03/19 11:19:41;;;;;;;10.50;8.38;;;;;;;;;;6164608;28;20310;-74
2023/03/19 11:22:47;;;;;;;9.82;8.07;;;;;;;;;;6166468;28;20274;-74
2023/03/19 11:25:54;;;;;;;9.27;7.50;;;;;;;;;;6166999;28;20274;-73
2023/03/19 11:29:04;;;;;;;9.93;7.60;;;;;;;;;;6166786;28;20302;-74
2023/03/19 11:32:30;;;;;;;9.32;7.15;;;;;;;;;;6166113;28;20318;-74
2023/03/19 11:35:41;;;;;;;10.25;8.18;;;;;;;;;;6158889;28;20322;-73
2023/03/19 11:38:59;;;;;;;9.27;7.93;;;;;;;;;;6166219;28;20512;-73
2023/03/19 11:42:22;;;;;;;9.25;7.68;;;;;;;;;;6165422;28;20484;-73
2023/03/19 11:45:33;;;;;;;11.77;7.93;;;;;;;;;;6166657;28;20314;-72
2023/03/19 11:49:03;;;;;;;11.77;8.68;;;;;;;;;;6166514;28;20302;-73
2023/03/19 11:52:17;;;;;;;8.32;7.53;;;;;;;;;;6166710;28;20566;-73
2023/03/19 11:55:28;;;;;;;7.88;7.07;;;;;;;;;;6165334;28;20298;-72
2023/03/19 11:58:50;;;;;;;8.65;7.70;;;;;;;;;;6165648;28;20302;-75
2023/03/19 12:02:19;;;;;;;7.90;7.10;;;;;;;;;;6167318;28;20294;-73
2023/03/19 12:05:29;;;;;;;7.00;6.35;;;;;;;;;;6167081;28;20294;-73
2023/03/19 12:08:42;;;;;;;10.52;6.88;;;;;;;;;;6166505;28;20302;-74
2023/03/19 12:11:53;;;;;;;9.30;6.90;;;;;;;;;;6166032;28;20467;-74
2023/03/19 12:15:11;;;;;;;8.73;7.15;;;;;;;;;;6165988;28;20477;-74
2023/03/19 12:18:23;;;;;;;7.65;6.60;;;;;;;;;;6166413;28;20310;-74
2023/03/19 12:21:32;;;;;;;8.25;7.28;;;;;;;;;;6167702;28;20302;-75
2023/03/19 12:24:49;;;;;;;9.13;7.72;;;;;;;;;;6166799;28;20302;-73
2023/03/19 12:27:56;;;;;;;9.68;7.65;;;;;;;;;;6166805;28;20290;-73
2023/03/19 12:31:34;;;;;;;8.40;7.50;;;;;;;;;;6166808;28;20290;-73
2023/03/19 12:34:43;;;;;;;10.52;7.63;;;;;;;;;;6166184;28;20414;-74
2023/03/19 12:37:59;;;;;;;8.90;8.00;;;;;;;;;;6167663;28;20278;-76
2023/03/19 12:41:10;;;;;;;8.48;7.68;;;;;;;;;;6167786;28;20448;-73
2023/03/19 12:44:20;;;;;;;8.73;7.93;;;;;;;;;;6167473;28;20339;-72
2023/03/19 12:47:29;;;;;;;9.25;8.02;;;;;;;;;;6166216;28;20306;-73
2023/03/19 12:50:38;;;;;;;7.88;7.15;;;;;;;;;;6165435;28;20306;-74
2023/03/19 12:53:47;;;;;;;8.02;7.30;;;;;;;;;;6165895;28;20442;-73
2023/03/19 12:56:59;;;;;;;7.90;7.13;;;;;;;;;;6167247;28;20364;-74
2023/03/19 13:00:11;;;;;;;6.80;6.28;;;;;;;;;;6166848;28;20603;-73
2023/03/19 13:03:19;;;;;;;7.45;6.85;;;;;;;;;;6166434;28;20294;-75
2023/03/19 13:06:28;;;;;;;7.55;6.95;;;;;;;;;;6167177;28;20598;-74
2023/03/19 13:09:39;;;;;;;7.75;7.05;;;;;;;;;;6166221;28;20298;-73
2023/03/19 13:12:46;;;;;;;7.55;6.88;;;;;;;;;;6142666;28;20612;-74
2023/03/19 13:15:54;;;;;;;6.82;6.32;;;;;;;;;;6141819;28;20291;-73
2023/03/19 13:19:07;;;;;;;8.38;7.07;;;;;;;;;;6142378;28;20303;-74
2023/03/19 13:22:17;;;;;;;9.57;6.82;;;;;;;;;;6142421;28;20291;-74
2023/03/19 13:25:25;;;;;;;11.85;6.97;;;;;;;;;;6142698;28;20307;-74
2023/03/19 13:28:35;;;;;;;8.45;7.60;;;;;;;;;;6142429;28;20320;-74
2023/03/19 13:31:42;;;;;;;8.65;7.45;;;;;;;;;;6142172;28;20279;-72
2023/03/19 13:34:47;;;;;;;8.90;7.97;;;;;;;;;;6142788;28;20583;-74
2023/03/19 13:37:57;;;;;;;8.25;7.45;;;;;;;;;;6142218;28;20268;-74
2023/03/19 13:41:02;;;;;;;8.95;7.65;;;;;;;;;;6142647;28;20298;-74
2023/03/19 13:44:29;;;;;;;7.47;6.80;;;;;;;;;;6142435;28;20298;-74
2023/03/19 13:47:43;;;;;;;7.10;6.60;;;;;;;;;;6142055;28;20308;-74
2023/03/19 13:50:54;;;;;;;6.90;6.30;;;;;;;;;;6141120;28;20357;-75
2023/03/19 13:54:07;;;;;;;6.03;5.55;;;;;;;;;;6141613;28;20291;-74
2023/03/19 13:57:34;;;;;;;6.32;5.82;;;;;;;;;;6141375;28;20306;-74
2023/03/19 14:01:00;;;;;;;7.05;6.28;;;;;;;;;;6139246;28;20587;-73
2023/03/19 14:04:06;;;;;;;5.93;5.53;;;;;;;;;;6139814;28;20299;-73
2023/03/19 14:07:13;;;;;;;6.20;5.72;;;;;;;;;;6140040;28;20307;-73
2023/03/19 14:10:22;;;;;;;5.60;5.30;;;;;;;;;;6145377;28;20436;-74
2023/03/19 14:13:33;;;;;;;6.03;5.63;;;;;;;;;;6163755;28;20610;-74
2023/03/19 14:16:45;;;;;;;5.63;5.28;;;;;;;;;;6162931;28;20274;-74
2023/03/19 14:19:51;;;;;;;6.10;5.65;;;;;;;;;;6163313;28;20298;-74
2023/03/19 14:23:11;;;;;;;5.55;5.15;;;;;;;;;;6163177;28;20309;-74
2023/03/19 14:26:23;;;;;;;5.78;5.13;;;;;;;;;;6163647;28;20302;-73
2023/03/19 14:29:29;;;;;;;5.75;5.30;;;;;;;;;;6162777;28;20306;-75
2023/03/19 14:32:39;;;;;;;6.28;5.78;;;;;;;;;;6163078;28;20301;-71
2023/03/19 14:35:47;;;;;;;5.93;5.25;;;;;;;;;;6162112;28;20586;-74
2023/03/19 14:38:54;;;;;;;6.30;5.88;;;;;;;;;;6162360;28;20298;-72
2023/03/19 14:42:03;;;;;;;6.13;5.57;;;;;;;;;;6163647;28;20302;-72
2023/03/19 14:45:40;;;;;;;6.40;5.85;;;;;;;;;;6162875;28;20295;-75
2023/03/19 14:49:28;;;;;;;6.65;6.15;;;;;;;;;;6162926;28;20602;-73
2023/03/19 14:52:38;;;;;;;6.93;6.22;;;;;;;;;;6144089;28;20298;-74
2023/03/19 14:55:43;;;;;;;6.80;6.30;;;;;;;;;;6161751;28;20275;-74
2023/03/19 14:58:50;;;;;;;6.50;5.97;;;;;;;;;;6163147;28;20298;-75
2023/03/19 15:01:55;;;;;;;6.10;5.70;;;;;;;;;;6163337;28;20297;-74
2023/03/19 15:05:03;;;;;;;6.50;6.00;;;;;;;;;;6162816;28;20302;-72
2023/03/19 15:08:13;;;;;;;6.28;5.88;;;;;;;;;;6162418;28;20294;-77
2023/03/19 15:11:36;;;;;;;5.70;5.40;;;;;;;;;;6161781;28;20289;-74
2023/03/19 15:14:55;;;;;;;6.97;6.30;;;;;;;;;;6162377;28;20307;-75
2023/03/19 15:18:03;;;;;;;6.65;6.15;;;;;;;;;;6162270;28;20298;-74
2023/03/19 15:21:10;;;;;;;6.95;6.45;;;;;;;;;;6162965;28;20310;-74
2023/03/19 15:24:16;;;;;;;6.80;6.30;;;;;;;;;;6162201;28;20294;-75
2023/03/19 15:27:23;;;;;;;7.10;6.50;;;;;;;;;;6163047;28;20290;-75
2023/03/19 15:30:28;;;;;;;7.10;6.50;;;;;;;;;;6162152;28;20313;-76
2023/03/19 15:33:36;;;;;;;8.07;7.38;;;;;;;;;;6162312;28;20302;-75
2023/03/19 15:36:50;;;;;;;9.43;7.60;;;;;;;;;;6163197;28;20298;-75
2023/03/19 15:39:56;;;;;;;9.18;8.27;;;;;;;;;;6162744;28;20572;-75
2023/03/19 15:43:02;;;;;;;9.95;8.45;;;;;;;;;;6162631;28;20373;-76
2023/03/19 15:46:10;;;;;;;8.85;8.07;;;;;;;;;;6192888;28;20290;-75
2023/03/19 15:49:19;;;;;;;8.30;7.50;;;;;;;;;;6166892;28;20306;-75
2023/03/19 15:52:27;;;;;;;10.75;8.07;;;;;;;;;;6167419;28;20295;-74
2023/03/19 15:55:34;;;;;;;9.93;8.68;;;;;;;;;;6167160;28;20562;-75
2023/03/19 15:58:46;;;;;;;8.40;7.60;;;;;;;;;;6165101;28;20585;-75
2023/03/19 16:01:51;;;;;;;9.63;8.35;;;;;;;;;;6167306;28;20274;-76
2023/03/19 16:04:57;;;;;;;9.10;8.15;;;;;;;;;;6166204;28;20290;-74
2023/03/19 16:08:26;;;;;;;8.52;7.72;;;;;;;;;;6165877;28;20586;-75
2023/03/19 16:11:34;;;;;;;8.27;7.47;;;;;;;;;;6165861;28;20322;-74
2023/03/19 16:14:44;;;;;;;9.00;8.07;;;;;;;;;;6166072;28;20298;-74
2023/03/19 16:17:49;;;;;;;8.50;7.70;;;;;;;;;;6165880;28;20294;-73
2023/03/19 16:21:06;;;;;;;8.38;7.57;;;;;;;;;;6166414;28;20298;-75
2023/03/19 16:24:23;;;;;;;9.32;8.43;;;;;;;;;;6164421;28;20303;-75
2023/03/19 16:27:34;;;;;;;10.07;8.07;;;;;;;;;;6166095;28;20294;-75
2023/03/19 16:30:46;;;;;;;9.80;8.50;;;;;;;;;;6165648;28;20294;-75
2023/03/19 16:33:52;;;;;;;9.85;7.80;;;;;;;;;;6165597;28;20310;-76
2023/03/19 16:36:58;;;;;;;8.93;7.97;;;;;;;;;;6166281;28;20314;-75
2023/03/19 16:40:41;;;;;;;10.70;8.50;;;;;;;;;;6165669;28;20330;-75
2023/03/19 16:43:46;;;;;;;11.30;8.03;;;;;;;;;;6155148;28;20629;-75
2023/03/19 16:46:51;;;;;;;11.03;8.53;;;;;;;;;;6165511;28;20267;-74
2023/03/19 16:49:57;;;;;;;10.87;8.83;;;;;;;;;;6165305;28;20317;-75
2023/03/19 16:53:04;;;;;;;14.50;8.93;;;;;;;;;;6165299;28;20286;-74
2023/03/19 16:56:14;;;;;;;10.32;8.07;;;;;;;;;;6165511;28;20303;-75
2023/03/19 16:59:24;;;;;;;13.47;9.37;;;;;;;;;;6164511;28;20298;-75
2023/03/19 17:02:29;;;;;;;13.87;9.37;;;;;;;;;;6165325;28;20309;-75
2023/03/19 17:05:34;;;;;;;13.37;9.20;;;;;;;;;;6164763;28;20297;-75
2023/03/19 17:08:40;;;;;;;11.90;8.57;;;;;;;;;;6163032;28;20602;-75
2023/03/19 17:11:47;;;;;;;13.90;9.33;;;;;;;;;;6164007;28;20298;-75
2023/03/19 17:14:53;;;;;;;12.75;8.68;;;;;;;;;;6163460;28;20294;-74
2023/03/19 17:17:59;;;;;;;10.63;7.70;;;;;;;;;;6194813;28;20310;-75
2023/03/19 17:21:08;;;;;;;11.68;7.25;;;;;;;;;;6164719;28;20298;-74
2023/03/19 17:24:22;;;;;;;10.45;7.28;;;;;;;;;;6195075;28;20310;-75
2023/03/19 17:27:29;;;;;;;10.27;7.78;;;;;;;;;;6164883;28;20298;-75
2023/03/19 17:30:38;;;;;;;11.30;8.20;;;;;;;;;;6163292;28;20342;-75
2023/03/19 17:33:44;;;;;;;17.07;8.80;;;;;;;;;;6163806;28;20582;-74
2023/03/19 17:36:51;;;;;;;11.40;8.50;;;;;;;;;;6164382;28;20295;-75
2023/03/19 17:39:57;;;;;;;12.02;9.20;;;;;;;;;;6162562;28;20302;-75
2023/03/19 17:43:05;;;;;;;11.80;9.03;;;;;;;;;;6163750;28;20310;-76
2023/03/19 17:46:15;;;;;;;14.67;8.43;;;;;;;;;;6164690;28;20297;-75
2023/03/19 17:49:23;;;;;;;12.70;8.80;;;;;;;;;;6163714;28;20295;-76
2023/03/19 17:52:29;;;;;;;12.80;9.57;;;;;;;;;;6164030;28;20294;-77
2023/03/19 17:55:34;;;;;;;15.27;9.33;;;;;;;;;;6162869;28;20298;-75
2023/03/19 17:58:40;;;;;;;13.45;8.90;;;;;;;;;;6163501;28;20401;-77
2023/03/19 18:01:47;;;;;;;15.50;9.40;;;;;;;;;;6162988;28;20291;-76
2023/03/19 18:04:52;;;;;;;12.43;8.93;;;;;;;;;;6163488;28;20298;-76
2023/03/19 18:07:57;;;;;;;12.30;9.20;;;;;;;;;;6163510;28;20469;-75
2023/03/19 18:11:03;;;;;;;12.98;8.63;;;;;;;;;;6163237;28;20298;-76
2023/03/19 18:14:10;;;;;;;15.38;8.93;;;;;;;;;;6162934;28;20294;-74
2023/03/19 18:17:16;;;;;;;12.43;8.80;;;;;;;;;;6163333;28;20290;-75
2023/03/19 18:20:24;;;;;;;14.63;9.20;;;;;;;;;;6163208;28;20354;-77
2023/03/19 18:23:29;;;;;;;11.57;8.43;;;;;;;;;;6193786;28;20299;-76
2023/03/19 18:26:35;;;;;;;11.10;8.00;;;;;;;;;;6163612;28;20294;-75
2023/03/19 18:29:41;;;;;;;9.47;7.30;;;;;;;;;;6163193;28;20598;-75
2023/03/19 18:32:48;;;;;;;6.23;5.70;;;;;;;;;;6162843;28;20298;-76
2023/03/19 18:35:54;;;;;;;5.43;5.03;;;;;;;;;;6163564;28;20302;-76